Mont Saint Michel — FNMT — position and weather

sailwx.info

Track history (hours):
 
Tides and Currents Weather Stations Pressure Air Temp Water Temp Dewpoint Dewpoint Depression Visibility Wind Speed Wind Dir Waves Ship Positions

Mont Saint Michel

Last reported at 2015-Sep-03 20:33 UTC. Time now 2015-Sep-03 21:33 UTC.
Position N 49°17' W 000°15'.

Length 173 m; beam 29 m.

Type: Ship. MMSI: 227023100.

Date/timePositionNaut miles runAvg speedWind from/ knotsBaromVisibWave heightAir tempDewpointWater temp
2015-Sep-03 20:33N 49°17' W 000°15'0 0.0
2015-Sep-03 19:33N 49°17' W 000°15'1111.4
2015-Sep-03 18:34N 49°29' W 000°18'1919.0
2015-Sep-03 17:34N 49°46' W 000°30'3819.0
2015-Sep-03 15:32N 50°22' W 000°49'2020.3
2015-Sep-03 14:34N 50°41' W 001°00'9 8.6
2015-Sep-03 13:34N 50°49' W 001°06'0 0.0
2015-Sep-03 12:33N 50°49' W 001°06'4 3.8
2015-Sep-03 11:34N 50°45' W 001°05'1919.2
2015-Sep-03 10:33N 50°28' W 000°52'4019.8
2015-Sep-03 08:34N 49°50' W 000°35'1918.9
2015-Sep-03 07:34N 49°32' W 000°23'1616.0
2015-Sep-03 06:34N 49°17' W 000°15'0 0.1
2015-Sep-03 05:33N 49°17' W 000°15'0 0.1
2015-Sep-03 04:34N 49°17' W 000°15'1111.4
2015-Sep-03 03:33N 49°29' W 000°18'1211.5
2015-Sep-03 02:33N 49°39' W 000°24'1212.0
2015-Sep-03 01:33N 49°51' W 000°30'2813.8
2015-Sep-02 23:30N 50°18' W 000°45'1717.7
2015-Sep-02 22:33N 50°33' W 000°55'1514.8
2015-Sep-02 21:33N 50°46' W 001°05'2 2.5
2015-Sep-02 20:33N 50°49' W 001°06'0 0.0
2015-Sep-02 19:33N 50°49' W 001°06'0 0.0
2015-Sep-02 18:33N 50°49' W 001°06'5 5.4
2015-Sep-02 17:33N 50°44' W 001°03'1918.0
2015-Sep-02 16:32N 50°26' W 000°53'3517.9
2015-Sep-02 14:33N 49°54' W 000°30'1717.5
2015-Sep-02 13:34N 49°37' W 000°22'1818.0
2015-Sep-02 12:34N 49°20' W 000°14'3 2.9
2015-Sep-02 11:34N 49°17' W 000°15'0 0.0
2015-Sep-02 10:33N 49°17' W 000°15'0 0.0
2015-Sep-02 09:33N 49°17' W 000°15'0 0.0
2015-Sep-02 08:33N 49°17' W 000°15'0 0.0
2015-Sep-02 07:33N 49°17' W 000°15'0 0.0
2015-Sep-02 06:33N 49°17' W 000°15'0 0.0
2015-Sep-02 05:33N 49°17' W 000°15'9 9.4
2015-Sep-02 04:33N 49°27' W 000°16'1515.5
2015-Sep-02 03:33N 49°41' W 000°25'1211.6
2015-Sep-02 02:33N 49°52' W 000°31'2713.2
2015-Sep-02 00:28N 50°18' W 000°44'1617.5
2015-Sep-01 23:33N 50°33' W 000°54'1515.0
2015-Sep-01 22:33N 50°46' W 001°05'3 2.6
2015-Sep-01 21:33N 50°49' W 001°06'0 0.0
2015-Sep-01 20:33N 50°49' W 001°06'5 4.8
2015-Sep-01 19:33N 50°44' W 001°04'1818.1
2015-Sep-01 18:34N 50°28' W 000°51'4120.6
2015-Sep-01 16:33N 49°50' W 000°27'2221.6
2015-Sep-01 15:33N 49°29' W 000°17'1211.8
2015-Sep-01 14:33N 49°17' W 000°15'0 0.0
2015-Sep-01 13:33N 49°17' W 000°15'3 3.3
2015-Sep-01 12:34N 49°21' W 000°14'1919.0
2015-Sep-01 11:33N 49°39' W 000°23'3919.1
2015-Sep-01 09:30N 50°15' W 000°45'1920.0
2015-Sep-01 08:33N 50°33' W 000°55'1616.4
2015-Sep-01 07:34N 50°48' W 001°07'1 1.1
2015-Sep-01 06:33N 50°49' W 001°06'0 0.2
2015-Sep-01 05:33N 50°49' W 001°06'1313.0
2015-Sep-01 04:33N 50°37' W 000°57'1613.5
2015-Sep-01 03:25N 50°22' W 000°50'2411.9
2015-Sep-01 01:22N 49°60' W 000°35'911.5
2015-Sep-01 00:33N 49°51' W 000°29'1111.1
2015-Aug-31 23:34N 49°41' W 000°24'1111.1
2015-Aug-31 22:33N 49°30' W 000°20'1110.9
2015-Aug-31 21:33N 49°20' W 000°14'2 2.5
2015-Aug-31 20:34N 49°17' W 000°15'0 0.0
2015-Aug-31 19:34N 49°17' W 000°15'10 9.7
2015-Aug-31 18:33N 49°27' W 000°17'2019.6
2015-Aug-31 17:33N 49°45' W 000°28'3919.2
2015-Aug-31 15:32N 50°21' W 000°49'2020.6
2015-Aug-31 14:33N 50°40' W 001°00'9 9.0
2015-Aug-31 13:33N 50°49' W 001°06'0 0.0
2015-Aug-31 12:33N 50°49' W 001°06'9 8.8
2015-Aug-31 11:33N 50°41' W 001°00'2020.4
2015-Aug-31 10:33N 50°22' W 000°46'2320.1
2015-Aug-31 09:25N 50°01' W 000°34'1719.8
2015-Aug-31 08:33N 49°45' W 000°25'2019.7
2015-Aug-31 07:33N 49°26' W 000°16'8 8.5
2015-Aug-31 06:33N 49°17' W 000°15'0 0.0
2015-Aug-31 05:34N 49°17' W 000°15'0 0.1
2015-Aug-31 04:33N 49°17' W 000°15'1514.8
2015-Aug-31 03:33N 49°32' W 000°20'1818.5
2015-Aug-31 02:33N 49°48' W 000°32'4113.6
2015-Aug-30 23:33N 50°27' W 000°54'1716.9
2015-Aug-30 22:34N 50°43' W 001°02'6 6.1
2015-Aug-30 21:33N 50°49' W 001°06'0 0.0
2015-Aug-30 20:34N 50°49' W 001°06'5 4.8
2015-Aug-30 19:33N 50°44' W 001°04'1918.5
2015-Aug-30 18:33N 50°27' W 000°52'2419.4
2015-Aug-30 17:18N 50°04' W 000°40'1519.9
2015-Aug-30 16:33N 49°50' W 000°32'2019.9
2015-Aug-30 15:33N 49°32' W 000°22'1514.8
2015-Aug-30 14:33N 49°17' W 000°15'0 0.0
2015-Aug-30 13:33N 49°17' W 000°15'2 1.6
2015-Aug-30 12:33N 49°19' W 000°15'1919.4
2015-Aug-30 11:33N 49°37' W 000°24'1917.8
2015-Aug-30 10:31N 49°55' W 000°33'3719.0
2015-Aug-30 08:33N 50°30' W 000°53'1817.9
2015-Aug-30 07:33N 50°46' W 001°05'3 2.8
2015-Aug-30 06:33N 50°49' W 001°06'0 0.1
2015-Aug-30 05:33N 50°49' W 001°06'1313.2
2015-Aug-30 04:34N 50°36' W 000°59'1211.8
2015-Aug-30 03:31N 50°24' W 000°55'3411.4
2015-Aug-30 00:33N 49°53' W 000°33'1211.8
2015-Aug-29 23:33N 49°43' W 000°26'1211.5
2015-Aug-29 22:33N 49°32' W 000°19'1111.5
2015-Aug-29 21:33N 49°21' W 000°15'4 3.6
2015-Aug-29 20:34N 49°17' W 000°15'0 0.0
2015-Aug-29 19:34N 49°17' W 000°15'1010.2
2015-Aug-29 18:34N 49°27' W 000°17'1818.3
2015-Aug-29 17:34N 49°45' W 000°27'3517.5
2015-Aug-29 15:34N 50°17' W 000°49'1919.3
2015-Aug-29 14:34N 50°35' W 000°57'1514.6
2015-Aug-29 13:33N 50°49' W 001°06'0 0.0
2015-Aug-29 12:34N 50°49' W 001°06'3 3.0
2015-Aug-29 11:33N 50°46' W 001°05'2020.5
2015-Aug-29 10:33N 50°28' W 000°51'2220.7
2015-Aug-29 09:31N 50°08' W 000°37'1819.0
2015-Aug-29 08:33N 49°51' W 000°27'1919.3
2015-Aug-29 07:33N 49°32' W 000°17'1515.1
2015-Aug-29 06:33N 49°17' W 000°15'0 0.0
2015-Aug-29 05:33N 49°17' W 000°15'0 0.1
2015-Aug-29 04:33N 49°17' W 000°15'1514.6
2015-Aug-29 03:34N 49°31' W 000°20'1515.1
2015-Aug-29 02:33N 49°46' W 000°27'1615.3
2015-Aug-29 01:33N 50°01' W 000°34'2015.1
2015-Aug-29 00:15N 50°19' W 000°46'1115.7
2015-Aug-28 23:33N 50°29' W 000°53'1515.5
2015-Aug-28 22:33N 50°43' W 001°02'6 6.1
2015-Aug-28 21:33N 50°49' W 001°06'0 0.0
2015-Aug-28 20:33N 50°49' W 001°06'5 4.6
2015-Aug-28 19:34N 50°44' W 001°04'1918.7
2015-Aug-28 18:33N 50°27' W 000°51'2920.1
2015-Aug-28 17:08N 50°00' W 000°36'1120.1
2015-Aug-28 16:34N 49°49' W 000°31'2120.7
2015-Aug-28 15:33N 49°30' W 000°19'1313.1
2015-Aug-28 14:33N 49°17' W 000°15'0 0.0
2015-Aug-28 13:33N 49°17' W 000°15'0 0.1
2015-Aug-28 12:33N 49°17' W 000°15'1717.4
2015-Aug-28 11:33N 49°34' W 000°21'1918.5
2015-Aug-28 10:33N 49°52' W 000°28'4120.4
2015-Aug-28 08:33N 50°30' W 000°53'1918.7
2015-Aug-28 07:34N 50°47' W 001°06'2 2.1
2015-Aug-28 06:34N 50°49' W 001°06'0 0.1
2015-Aug-28 05:34N 50°49' W 001°06'1211.6
2015-Aug-28 04:33N 50°38' W 000°59'10 9.9
2015-Aug-28 03:32N 50°29' W 000°52'1010.2
2015-Aug-28 02:33N 50°20' W 000°46'2411.7
2015-Aug-28 00:30N 49°57' W 000°34'1212.7
2015-Aug-27 23:33N 49°46' W 000°27'1312.9
2015-Aug-27 22:33N 49°34' W 000°18'1212.3
2015-Aug-27 21:33N 49°22' W 000°15'5 4.7
2015-Aug-27 20:33N 49°17' W 000°15'0 0.0
2015-Aug-27 19:33N 49°17' W 000°15'6 6.4
2015-Aug-27 18:33N 49°24' W 000°16'1919.3
2015-Aug-27 17:33N 49°42' W 000°25'3919.7
2015-Aug-27 15:33N 50°19' W 000°47'2120.5
2015-Aug-27 14:32N 50°39' W 000°59'1111.4
2015-Aug-27 13:33N 50°49' W 001°06'0 0.0
2015-Aug-27 12:33N 50°49' W 001°06'4 3.8
2015-Aug-27 11:34N 50°45' W 001°05'2019.9
2015-Aug-27 10:33N 50°27' W 000°50'3020.8
2015-Aug-27 09:08N 49°59' W 000°35'1220.8
2015-Aug-27 08:34N 49°48' W 000°29'1919.2
2015-Aug-27 07:34N 49°30' W 000°20'1312.8
2015-Aug-27 06:33N 49°17' W 000°15'0 0.0
2015-Aug-27 05:34N 49°17' W 000°15'0 0.1
2015-Aug-27 04:34N 49°17' W 000°15'1616.0
2015-Aug-27 03:33N 49°33' W 000°20'1211.7
2015-Aug-27 02:33N 49°43' W 000°29'1110.9
2015-Aug-27 01:33N 49°53' W 000°37'3013.2
2015-Aug-26 23:17N 50°21' W 000°50'1114.9
2015-Aug-26 22:34N 50°32' W 000°55'1414.4
2015-Aug-26 21:34N 50°45' W 001°05'4 4.0
2015-Aug-26 20:33N 50°49' W 001°06'0 0.0
2015-Aug-26 19:34N 50°49' W 001°06'0 0.0
2015-Aug-26 18:33N 50°49' W 001°06'4 4.0
2015-Aug-26 17:34N 50°45' W 001°05'1918.6
2015-Aug-26 16:33N 50°28' W 000°52'2619.6
2015-Aug-26 15:14N 50°03' W 000°38'1217.6
2015-Aug-26 14:34N 49°52' W 000°32'1716.7
2015-Aug-26 13:34N 49°37' W 000°22'1817.7
2015-Aug-26 12:34N 49°20' W 000°14'3 2.7
2015-Aug-26 11:33N 49°17' W 000°15'0 0.0
2015-Aug-26 10:33N 49°17' W 000°15'0 0.0
2015-Aug-26 09:33N 49°17' W 000°15'0 0.0
2015-Aug-26 08:33N 49°17' W 000°15'0 0.0
2015-Aug-26 07:33N 49°17' W 000°15'0 0.0
2015-Aug-26 06:33N 49°17' W 000°15'0 0.0
2015-Aug-26 05:33N 49°17' W 000°15'1211.6
2015-Aug-26 04:33N 49°29' W 000°18'1515.5
2015-Aug-26 03:33N 49°43' W 000°27'4212.3
2015-Aug-26 00:07N 50°23' W 000°51'814.4
2015-Aug-25 23:33N 50°30' W 000°55'1514.6
2015-Aug-25 22:33N 50°44' W 001°03'5 5.1
2015-Aug-25 21:33N 50°49' W 001°06'0 0.0
2015-Aug-25 20:33N 50°49' W 001°06'5 5.4
2015-Aug-25 19:33N 50°44' W 001°02'1716.8
2015-Aug-25 18:32N 50°27' W 000°55'2720.1
2015-Aug-25 17:11N 50°02' W 000°38'1320.0
2015-Aug-25 16:33N 49°50' W 000°32'2020.4
2015-Aug-25 15:33N 49°31' W 000°21'1414.5
2015-Aug-25 14:33N 49°17' W 000°15'0 0.0
2015-Aug-25 13:33N 49°17' W 000°15'0 0.1
2015-Aug-25 12:33N 49°17' W 000°15'1717.5
2015-Aug-25 11:34N 49°34' W 000°20'2019.9
2015-Aug-25 10:34N 49°53' W 000°31'2919.9
2015-Aug-25 09:05N 50°20' W 000°48'1120.2
2015-Aug-25 08:33N 50°30' W 000°54'1817.5
2015-Aug-25 07:34N 50°46' W 001°05'3 2.7
2015-Aug-25 06:33N 50°49' W 001°06'0 0.0
2015-Aug-25 05:33N 50°49' W 001°06'1111.3
2015-Aug-25 04:33N 50°38' W 000°58'1514.4
2015-Aug-25 03:32N 50°24' W 000°51'2511.1
2015-Aug-25 01:14N 50°01' W 000°37'710.1
2015-Aug-25 00:33N 49°54' W 000°33'1010.4
2015-Aug-24 23:33N 49°44' W 000°28'1110.8
2015-Aug-24 22:33N 49°34' W 000°22'1111.3
2015-Aug-24 21:33N 49°24' W 000°16'  
Track history (hours):
 
Tides and Currents Weather Stations Pressure Air Temp Water Temp Dewpoint Dewpoint Depression Visibility Wind Speed Wind Dir Waves Ship Positions

Mont Saint Michel

Last reported at 2015-Sep-03 20:33 UTC. Time now 2015-Sep-03 21:33 UTC.
Position N 49°17' W 000°15'.

Length 173 m; beam 29 m.

Type: Ship. MMSI: 227023100.

Date/timePositionNaut miles runAvg speedWind from/ knotsBaromVisibWave heightAir tempDewpointWater temp
2015-Sep-03 20:33N 49°17' W 000°15'0 0.0
2015-Sep-03 19:33N 49°17' W 000°15'1111.4
2015-Sep-03 18:34N 49°29' W 000°18'1919.0
2015-Sep-03 17:34N 49°46' W 000°30'3819.0
2015-Sep-03 15:32N 50°22' W 000°49'2020.3
2015-Sep-03 14:34N 50°41' W 001°00'9 8.6
2015-Sep-03 13:34N 50°49' W 001°06'0 0.0
2015-Sep-03 12:33N 50°49' W 001°06'4 3.8
2015-Sep-03 11:34N 50°45' W 001°05'1919.2
2015-Sep-03 10:33N 50°28' W 000°52'4019.8
2015-Sep-03 08:34N 49°50' W 000°35'1918.9
2015-Sep-03 07:34N 49°32' W 000°23'1616.0
2015-Sep-03 06:34N 49°17' W 000°15'0 0.1
2015-Sep-03 05:33N 49°17' W 000°15'0 0.1
2015-Sep-03 04:34N 49°17' W 000°15'1111.4
2015-Sep-03 03:33N 49°29' W 000°18'1211.5
2015-Sep-03 02:33N 49°39' W 000°24'1212.0
2015-Sep-03 01:33N 49°51' W 000°30'2813.8
2015-Sep-02 23:30N 50°18' W 000°45'1717.7
2015-Sep-02 22:33N 50°33' W 000°55'1514.8
2015-Sep-02 21:33N 50°46' W 001°05'2 2.5
2015-Sep-02 20:33N 50°49' W 001°06'0 0.0
2015-Sep-02 19:33N 50°49' W 001°06'0 0.0
2015-Sep-02 18:33N 50°49' W 001°06'5 5.4
2015-Sep-02 17:33N 50°44' W 001°03'1918.0
2015-Sep-02 16:32N 50°26' W 000°53'3517.9
2015-Sep-02 14:33N 49°54' W 000°30'1717.5
2015-Sep-02 13:34N 49°37' W 000°22'1818.0
2015-Sep-02 12:34N 49°20' W 000°14'3 2.9
2015-Sep-02 11:34N 49°17' W 000°15'0 0.0
2015-Sep-02 10:33N 49°17' W 000°15'0 0.0
2015-Sep-02 09:33N 49°17' W 000°15'0 0.0
2015-Sep-02 08:33N 49°17' W 000°15'0 0.0
2015-Sep-02 07:33N 49°17' W 000°15'0 0.0
2015-Sep-02 06:33N 49°17' W 000°15'0 0.0
2015-Sep-02 05:33N 49°17' W 000°15'9 9.4
2015-Sep-02 04:33N 49°27' W 000°16'1515.5
2015-Sep-02 03:33N 49°41' W 000°25'1211.6
2015-Sep-02 02:33N 49°52' W 000°31'2713.2
2015-Sep-02 00:28N 50°18' W 000°44'1617.5
2015-Sep-01 23:33N 50°33' W 000°54'1515.0
2015-Sep-01 22:33N 50°46' W 001°05'3 2.6
2015-Sep-01 21:33N 50°49' W 001°06'0 0.0
2015-Sep-01 20:33N 50°49' W 001°06'5 4.8
2015-Sep-01 19:33N 50°44' W 001°04'1818.1
2015-Sep-01 18:34N 50°28' W 000°51'4120.6
2015-Sep-01 16:33N 49°50' W 000°27'2221.6
2015-Sep-01 15:33N 49°29' W 000°17'1211.8
2015-Sep-01 14:33N 49°17' W 000°15'0 0.0
2015-Sep-01 13:33N 49°17' W 000°15'3 3.3
2015-Sep-01 12:34N 49°21' W 000°14'1919.0
2015-Sep-01 11:33N 49°39' W 000°23'3919.1
2015-Sep-01 09:30N 50°15' W 000°45'1920.0
2015-Sep-01 08:33N 50°33' W 000°55'1616.4
2015-Sep-01 07:34N 50°48' W 001°07'1 1.1
2015-Sep-01 06:33N 50°49' W 001°06'0 0.2
2015-Sep-01 05:33N 50°49' W 001°06'1313.0
2015-Sep-01 04:33N 50°37' W 000°57'1613.5
2015-Sep-01 03:25N 50°22' W 000°50'2411.9
2015-Sep-01 01:22N 49°60' W 000°35'911.5
2015-Sep-01 00:33N 49°51' W 000°29'1111.1
2015-Aug-31 23:34N 49°41' W 000°24'1111.1
2015-Aug-31 22:33N 49°30' W 000°20'1110.9
2015-Aug-31 21:33N 49°20' W 000°14'2 2.5
2015-Aug-31 20:34N 49°17' W 000°15'0 0.0
2015-Aug-31 19:34N 49°17' W 000°15'10 9.7
2015-Aug-31 18:33N 49°27' W 000°17'2019.6
2015-Aug-31 17:33N 49°45' W 000°28'3919.2
2015-Aug-31 15:32N 50°21' W 000°49'2020.6
2015-Aug-31 14:33N 50°40' W 001°00'9 9.0
2015-Aug-31 13:33N 50°49' W 001°06'0 0.0
2015-Aug-31 12:33N 50°49' W 001°06'9 8.8
2015-Aug-31 11:33N 50°41' W 001°00'2020.4
2015-Aug-31 10:33N 50°22' W 000°46'2320.1
2015-Aug-31 09:25N 50°01' W 000°34'1719.8
2015-Aug-31 08:33N 49°45' W 000°25'2019.7
2015-Aug-31 07:33N 49°26' W 000°16'8 8.5
2015-Aug-31 06:33N 49°17' W 000°15'0 0.0
2015-Aug-31 05:34N 49°17' W 000°15'0 0.1
2015-Aug-31 04:33N 49°17' W 000°15'1514.8
2015-Aug-31 03:33N 49°32' W 000°20'1818.5
2015-Aug-31 02:33N 49°48' W 000°32'4113.6
2015-Aug-30 23:33N 50°27' W 000°54'1716.9
2015-Aug-30 22:34N 50°43' W 001°02'6 6.1
2015-Aug-30 21:33N 50°49' W 001°06'0 0.0
2015-Aug-30 20:34N 50°49' W 001°06'5 4.8
2015-Aug-30 19:33N 50°44' W 001°04'1918.5
2015-Aug-30 18:33N 50°27' W 000°52'2419.4
2015-Aug-30 17:18N 50°04' W 000°40'1519.9
2015-Aug-30 16:33N 49°50' W 000°32'2019.9
2015-Aug-30 15:33N 49°32' W 000°22'1514.8
2015-Aug-30 14:33N 49°17' W 000°15'0 0.0
2015-Aug-30 13:33N 49°17' W 000°15'2 1.6
2015-Aug-30 12:33N 49°19' W 000°15'1919.4
2015-Aug-30 11:33N 49°37' W 000°24'1917.8
2015-Aug-30 10:31N 49°55' W 000°33'3719.0
2015-Aug-30 08:33N 50°30' W 000°53'1817.9
2015-Aug-30 07:33N 50°46' W 001°05'3 2.8
2015-Aug-30 06:33N 50°49' W 001°06'0 0.1
2015-Aug-30 05:33N 50°49' W 001°06'1313.2
2015-Aug-30 04:34N 50°36' W 000°59'1211.8
2015-Aug-30 03:31N 50°24' W 000°55'3411.4
2015-Aug-30 00:33N 49°53' W 000°33'1211.8
2015-Aug-29 23:33N 49°43' W 000°26'1211.5
2015-Aug-29 22:33N 49°32' W 000°19'1111.5
2015-Aug-29 21:33N 49°21' W 000°15'4 3.6
2015-Aug-29 20:34N 49°17' W 000°15'0 0.0
2015-Aug-29 19:34N 49°17' W 000°15'1010.2
2015-Aug-29 18:34N 49°27' W 000°17'1818.3
2015-Aug-29 17:34N 49°45' W 000°27'3517.5
2015-Aug-29 15:34N 50°17' W 000°49'1919.3
2015-Aug-29 14:34N 50°35' W 000°57'1514.6
2015-Aug-29 13:33N 50°49' W 001°06'0 0.0
2015-Aug-29 12:34N 50°49' W 001°06'3 3.0
2015-Aug-29 11:33N 50°46' W 001°05'2020.5
2015-Aug-29 10:33N 50°28' W 000°51'2220.7
2015-Aug-29 09:31N 50°08' W 000°37'1819.0
2015-Aug-29 08:33N 49°51' W 000°27'1919.3
2015-Aug-29 07:33N 49°32' W 000°17'1515.1
2015-Aug-29 06:33N 49°17' W 000°15'0 0.0
2015-Aug-29 05:33N 49°17' W 000°15'0 0.1
2015-Aug-29 04:33N 49°17' W 000°15'1514.6
2015-Aug-29 03:34N 49°31' W 000°20'1515.1
2015-Aug-29 02:33N 49°46' W 000°27'1615.3
2015-Aug-29 01:33N 50°01' W 000°34'2015.1
2015-Aug-29 00:15N 50°19' W 000°46'1115.7
2015-Aug-28 23:33N 50°29' W 000°53'1515.5
2015-Aug-28 22:33N 50°43' W 001°02'6 6.1
2015-Aug-28 21:33N 50°49' W 001°06'0 0.0
2015-Aug-28 20:33N 50°49' W 001°06'5 4.6
2015-Aug-28 19:34N 50°44' W 001°04'1918.7
2015-Aug-28 18:33N 50°27' W 000°51'2920.1
2015-Aug-28 17:08N 50°00' W 000°36'1120.1
2015-Aug-28 16:34N 49°49' W 000°31'2120.7
2015-Aug-28 15:33N 49°30' W 000°19'1313.1
2015-Aug-28 14:33N 49°17' W 000°15'0 0.0
2015-Aug-28 13:33N 49°17' W 000°15'0 0.1
2015-Aug-28 12:33N 49°17' W 000°15'1717.4
2015-Aug-28 11:33N 49°34' W 000°21'1918.5
2015-Aug-28 10:33N 49°52' W 000°28'4120.4
2015-Aug-28 08:33N 50°30' W 000°53'1918.7
2015-Aug-28 07:34N 50°47' W 001°06'2 2.1
2015-Aug-28 06:34N 50°49' W 001°06'0 0.1
2015-Aug-28 05:34N 50°49' W 001°06'1211.6
2015-Aug-28 04:33N 50°38' W 000°59'10 9.9
2015-Aug-28 03:32N 50°29' W 000°52'1010.2
2015-Aug-28 02:33N 50°20' W 000°46'2411.7
2015-Aug-28 00:30N 49°57' W 000°34'1212.7
2015-Aug-27 23:33N 49°46' W 000°27'1312.9
2015-Aug-27 22:33N 49°34' W 000°18'1212.3
2015-Aug-27 21:33N 49°22' W 000°15'5 4.7
2015-Aug-27 20:33N 49°17' W 000°15'0 0.0
2015-Aug-27 19:33N 49°17' W 000°15'6 6.4
2015-Aug-27 18:33N 49°24' W 000°16'1919.3
2015-Aug-27 17:33N 49°42' W 000°25'3919.7
2015-Aug-27 15:33N 50°19' W 000°47'2120.5
2015-Aug-27 14:32N 50°39' W 000°59'1111.4
2015-Aug-27 13:33N 50°49' W 001°06'0 0.0
2015-Aug-27 12:33N 50°49' W 001°06'4 3.8
2015-Aug-27 11:34N 50°45' W 001°05'2019.9
2015-Aug-27 10:33N 50°27' W 000°50'3020.8
2015-Aug-27 09:08N 49°59' W 000°35'1220.8
2015-Aug-27 08:34N 49°48' W 000°29'1919.2
2015-Aug-27 07:34N 49°30' W 000°20'1312.8
2015-Aug-27 06:33N 49°17' W 000°15'0 0.0
2015-Aug-27 05:34N 49°17' W 000°15'0 0.1
2015-Aug-27 04:34N 49°17' W 000°15'1616.0
2015-Aug-27 03:33N 49°33' W 000°20'1211.7
2015-Aug-27 02:33N 49°43' W 000°29'1110.9
2015-Aug-27 01:33N 49°53' W 000°37'3013.2
2015-Aug-26 23:17N 50°21' W 000°50'1114.9
2015-Aug-26 22:34N 50°32' W 000°55'1414.4
2015-Aug-26 21:34N 50°45' W 001°05'4 4.0
2015-Aug-26 20:33N 50°49' W 001°06'0 0.0
2015-Aug-26 19:34N 50°49' W 001°06'0 0.0
2015-Aug-26 18:33N 50°49' W 001°06'4 4.0
2015-Aug-26 17:34N 50°45' W 001°05'1918.6
2015-Aug-26 16:33N 50°28' W 000°52'2619.6
2015-Aug-26 15:14N 50°03' W 000°38'1217.6
2015-Aug-26 14:34N 49°52' W 000°32'1716.7
2015-Aug-26 13:34N 49°37' W 000°22'1817.7
2015-Aug-26 12:34N 49°20' W 000°14'3 2.7
2015-Aug-26 11:33N 49°17' W 000°15'0 0.0
2015-Aug-26 10:33N 49°17' W 000°15'0 0.0
2015-Aug-26 09:33N 49°17' W 000°15'0 0.0
2015-Aug-26 08:33N 49°17' W 000°15'0 0.0
2015-Aug-26 07:33N 49°17' W 000°15'0 0.0
2015-Aug-26 06:33N 49°17' W 000°15'0 0.0
2015-Aug-26 05:33N 49°17' W 000°15'1211.6
2015-Aug-26 04:33N 49°29' W 000°18'1515.5
2015-Aug-26 03:33N 49°43' W 000°27'4212.3
2015-Aug-26 00:07N 50°23' W 000°51'814.4
2015-Aug-25 23:33N 50°30' W 000°55'1514.6
2015-Aug-25 22:33N 50°44' W 001°03'5 5.1
2015-Aug-25 21:33N 50°49' W 001°06'0 0.0
2015-Aug-25 20:33N 50°49' W 001°06'5 5.4
2015-Aug-25 19:33N 50°44' W 001°02'1716.8
2015-Aug-25 18:32N 50°27' W 000°55'2720.1
2015-Aug-25 17:11N 50°02' W 000°38'1320.0
2015-Aug-25 16:33N 49°50' W 000°32'2020.4
2015-Aug-25 15:33N 49°31' W 000°21'1414.5
2015-Aug-25 14:33N 49°17' W 000°15'0 0.0
2015-Aug-25 13:33N 49°17' W 000°15'0 0.1
2015-Aug-25 12:33N 49°17' W 000°15'1717.5
2015-Aug-25 11:34N 49°34' W 000°20'2019.9
2015-Aug-25 10:34N 49°53' W 000°31'2919.9
2015-Aug-25 09:05N 50°20' W 000°48'1120.2
2015-Aug-25 08:33N 50°30' W 000°54'1817.5
2015-Aug-25 07:34N 50°46' W 001°05'3 2.7
2015-Aug-25 06:33N 50°49' W 001°06'0 0.0
2015-Aug-25 05:33N 50°49' W 001°06'1111.3
2015-Aug-25 04:33N 50°38' W 000°58'1514.4
2015-Aug-25 03:32N 50°24' W 000°51'2511.1
2015-Aug-25 01:14N 50°01' W 000°37'710.1
2015-Aug-25 00:33N 49°54' W 000°33'1010.4
2015-Aug-24 23:33N 49°44' W 000°28'1110.8
2015-Aug-24 22:33N 49°34' W 000°22'1111.3
2015-Aug-24 21:33N 49°24' W 000°16'  

Dump ship's entire track history